createdAt,value
2022-07-27T00:09:39.907Z,93.20
2022-07-27T00:24:44.550Z,93.30
2022-07-27T00:39:48.941Z,95.60
2022-07-27T00:54:53.724Z,95.20
2022-07-27T01:09:58.412Z,97.10
2022-07-27T01:25:03.301Z,97.10
2022-07-27T01:40:08.811Z,96.00
2022-07-27T01:55:13.654Z,97.70
2022-07-27T02:10:18.053Z,99.90
2022-07-27T02:25:22.680Z,99.70
2022-07-27T02:40:27.255Z,99.10
2022-07-27T02:55:31.749Z,98.40
2022-07-27T03:10:36.438Z,98.60
2022-07-27T03:25:40.944Z,97.90
2022-07-27T03:40:45.530Z,97.80
2022-07-27T03:55:50.027Z,97.80
2022-07-27T04:10:54.448Z,97.70
2022-07-27T04:26:01.851Z,97.00
2022-07-27T04:41:06.602Z,96.30
2022-07-27T04:56:11.393Z,95.60
2022-07-27T05:11:15.898Z,94.70
2022-07-27T05:26:22.179Z,94.50
2022-07-27T05:41:27.536Z,94.80
2022-07-27T05:56:31.960Z,94.90
2022-07-27T06:11:36.800Z,94.00
2022-07-27T06:26:41.312Z,93.90
2022-07-27T06:41:45.958Z,93.70
2022-07-27T06:56:50.781Z,93.80
2022-07-27T07:11:55.347Z,93.60
2022-07-27T07:26:59.758Z,93.70
2022-07-27T07:42:04.360Z,94.00
2022-07-27T07:57:15.417Z,93.30
2022-07-27T08:12:19.912Z,93.40
2022-07-27T08:27:24.336Z,93.30
2022-07-27T08:42:29.060Z,93.20
2022-07-27T08:57:33.430Z,93.40
2022-07-27T09:12:38.443Z,92.40
2022-07-27T09:27:43.666Z,92.30
2022-07-27T09:43:05.645Z,91.40
2022-07-27T09:58:15.769Z,90.90
2022-07-27T10:13:20.374Z,89.30
2022-07-27T10:28:25.582Z,86.00
2022-07-27T10:43:30.090Z,82.50
2022-07-27T10:58:52.274Z,82.20
2022-07-27T11:13:58.839Z,80.30
2022-07-27T11:29:08.807Z,78.90
2022-07-27T11:44:14.935Z,74.50
2022-07-27T11:59:22.211Z,73.10
2022-07-27T12:14:38.440Z,77.00
2022-07-27T12:30:01.466Z,68.90
2022-07-27T12:45:20.298Z,65.40
2022-07-27T13:00:31.038Z,65.20
2022-07-27T13:15:38.253Z,64.10
2022-07-27T13:30:42.756Z,60.60
2022-07-27T13:45:47.318Z,58.10
2022-07-27T14:00:51.892Z,56.90
2022-07-27T14:15:56.515Z,46.20
2022-07-27T14:31:01.670Z,48.00
2022-07-27T14:46:07.212Z,49.40
2022-07-27T15:01:11.742Z,52.30
2022-07-27T15:16:16.768Z,45.10
2022-07-27T15:31:21.333Z,47.00
2022-07-27T15:46:27.028Z,42.80
2022-07-27T16:01:35.617Z,47.00
2022-07-27T16:16:40.410Z,45.80
2022-07-27T16:31:45.016Z,48.50
2022-07-27T16:46:49.641Z,48.30
2022-07-27T17:01:54.457Z,50.30
2022-07-27T17:16:58.934Z,50.40
2022-07-27T17:32:03.504Z,49.10
2022-07-27T17:47:08.441Z,50.30
2022-07-27T18:02:13.712Z,51.10
2022-07-27T18:17:18.180Z,50.30
2022-07-27T18:32:22.637Z,50.20
2022-07-27T18:47:27.071Z,51.50
2022-07-27T19:02:37.144Z,52.00
2022-07-27T19:17:43.913Z,52.20
2022-07-27T19:32:48.350Z,58.60
2022-07-27T19:47:52.890Z,53.50
2022-07-27T20:02:57.396Z,55.50
2022-07-27T20:18:01.966Z,55.00
2022-07-27T20:33:07.361Z,55.30
2022-07-27T20:48:12.196Z,56.10
2022-07-27T21:03:16.658Z,55.40
2022-07-27T21:18:21.076Z,55.60
2022-07-27T21:33:25.538Z,56.20
2022-07-27T21:48:29.960Z,56.00
2022-07-27T22:03:34.487Z,56.80
2022-07-27T22:18:39.375Z,57.10
2022-07-27T22:33:44.343Z,58.00
2022-07-27T22:48:49.232Z,57.80
2022-07-27T23:03:53.659Z,58.40
2022-07-27T23:18:58.077Z,58.50
2022-07-27T23:34:02.483Z,58.60
2022-07-27T23:49:06.968Z,58.70
